sensor_id;sensor_type;location;lat;lon;timestamp;pressure;altitude;pressure_sealevel;temperature;humidity
45888;BME280;31595;51.418;7.572;2022-10-31T00:00:46;100727.13;;;14.94;69.08
45888;BME280;31595;51.418;7.572;2022-10-31T00:03:47;100731.13;;;14.93;68.15
45888;BME280;31595;51.418;7.572;2022-10-31T00:06:28;100736.34;;;14.95;68.86
45888;BME280;31595;51.418;7.572;2022-10-31T00:09:04;100726.81;;;14.96;68.98
45888;BME280;31595;51.418;7.572;2022-10-31T00:11:36;100742.13;;;14.98;69.19
45888;BME280;31595;51.418;7.572;2022-10-31T00:14:31;100739.16;;;15.04;68.49
45888;BME280;31595;51.418;7.572;2022-10-31T00:17:19;100736.63;;;15.11;69.39
45888;BME280;31595;51.418;7.572;2022-10-31T00:19:58;100740.06;;;15.16;68.14
45888;BME280;31595;51.418;7.572;2022-10-31T00:22:35;100728.84;;;15.16;68.44
45888;BME280;31595;51.418;7.572;2022-10-31T00:25:11;100731.78;;;15.20;67.63
45888;BME280;31595;51.418;7.572;2022-10-31T00:27:47;100740.56;;;15.18;68.23
45888;BME280;31595;51.418;7.572;2022-10-31T00:30:18;100741.38;;;15.19;67.92
45888;BME280;31595;51.418;7.572;2022-10-31T00:32:55;100736.56;;;15.19;68.45
45888;BME280;31595;51.418;7.572;2022-10-31T00:38:34;100737.53;;;15.23;68.34
45888;BME280;31595;51.418;7.572;2022-10-31T00:41:18;100733.69;;;15.28;68.56
45888;BME280;31595;51.418;7.572;2022-10-31T00:44:40;100739.78;;;15.30;67.97
45888;BME280;31595;51.418;7.572;2022-10-31T00:47:07;100739.63;;;15.35;67.18
45888;BME280;31595;51.418;7.572;2022-10-31T00:49:57;100740.59;;;15.39;68.13
45888;BME280;31595;51.418;7.572;2022-10-31T00:52:46;100731.78;;;15.41;67.77
45888;BME280;31595;51.418;7.572;2022-10-31T00:55:39;100730.50;;;15.38;67.75
45888;BME280;31595;51.418;7.572;2022-10-31T00:58:10;100735.31;;;15.38;67.24
45888;BME280;31595;51.418;7.572;2022-10-31T01:00:57;100730.50;;;15.38;67.97
45888;BME280;31595;51.418;7.572;2022-10-31T01:03:30;100724.56;;;15.40;67.21
45888;BME280;31595;51.418;7.572;2022-10-31T01:06:20;100726.53;;;15.39;68.38
45888;BME280;31595;51.418;7.572;2022-10-31T01:09:24;100728.50;;;15.39;68.84
45888;BME280;31595;51.418;7.572;2022-10-31T01:12:18;100738.59;;;15.40;68.44
45888;BME280;31595;51.418;7.572;2022-10-31T01:15:13;100737.88;;;15.43;68.29
45888;BME280;31595;51.418;7.572;2022-10-31T01:21:18;100740.31;;;15.53;68.48
45888;BME280;31595;51.418;7.572;2022-10-31T01:23:53;100739.97;;;15.55;68.06
45888;BME280;31595;51.418;7.572;2022-10-31T01:29:43;100736.94;;;15.60;68.48
45888;BME280;31595;51.418;7.572;2022-10-31T01:32:11;100746.31;;;15.64;68.03
45888;BME280;31595;51.418;7.572;2022-10-31T01:34:55;100745.84;;;15.62;68.03
45888;BME280;31595;51.418;7.572;2022-10-31T01:37:39;100731.13;;;15.65;67.93
45888;BME280;31595;51.418;7.572;2022-10-31T01:43:18;100744.00;;;15.75;67.34
45888;BME280;31595;51.418;7.572;2022-10-31T01:46:03;100739.34;;;15.70;67.58
45888;BME280;31595;51.418;7.572;2022-10-31T01:49:10;100757.81;;;15.80;67.43
45888;BME280;31595;51.418;7.572;2022-10-31T01:51:46;100759.44;;;15.81;67.96
45888;BME280;31595;51.418;7.572;2022-10-31T01:55:02;100770.81;;;15.85;68.07
45888;BME280;31595;51.418;7.572;2022-10-31T01:58:37;100773.28;;;15.86;67.10
45888;BME280;31595;51.418;7.572;2022-10-31T02:01:13;100776.38;;;15.93;66.59
45888;BME280;31595;51.418;7.572;2022-10-31T02:04:14;100774.19;;;15.99;66.98
45888;BME280;31595;51.418;7.572;2022-10-31T02:07:18;100767.50;;;16.03;67.03
45888;BME280;31595;51.418;7.572;2022-10-31T02:10:46;100761.56;;;16.05;66.70
45888;BME280;31595;51.418;7.572;2022-10-31T02:13:19;100745.66;;;16.09;66.79
45888;BME280;31595;51.418;7.572;2022-10-31T02:21:47;100728.66;;;16.06;66.60
45888;BME280;31595;51.418;7.572;2022-10-31T02:24:53;100715.41;;;15.94;66.50
45888;BME280;31595;51.418;7.572;2022-10-31T02:27:41;100717.13;;;15.86;66.58
45888;BME280;31595;51.418;7.572;2022-10-31T02:30:15;100715.34;;;15.81;67.33
45888;BME280;31595;51.418;7.572;2022-10-31T02:32:57;100722.91;;;15.81;67.73
45888;BME280;31595;51.418;7.572;2022-10-31T02:35:38;100721.63;;;15.78;67.73
45888;BME280;31595;51.418;7.572;2022-10-31T02:38:14;100715.53;;;15.76;67.08
45888;BME280;31595;51.418;7.572;2022-10-31T02:40:48;100717.38;;;15.72;67.21
45888;BME280;31595;51.418;7.572;2022-10-31T02:43:20;100711.16;;;15.67;67.32
45888;BME280;31595;51.418;7.572;2022-10-31T02:45:50;100703.06;;;15.65;66.54
45888;BME280;31595;51.418;7.572;2022-10-31T02:48:26;100698.09;;;15.62;66.49
45888;BME280;31595;51.418;7.572;2022-10-31T02:50:57;100690.66;;;15.45;66.89
45888;BME280;31595;51.418;7.572;2022-10-31T02:53:26;100701.94;;;15.36;67.10
45888;BME280;31595;51.418;7.572;2022-10-31T02:55:58;100710.59;;;15.31;67.52
45888;BME280;31595;51.418;7.572;2022-10-31T02:58:28;100710.28;;;15.24;68.50
45888;BME280;31595;51.418;7.572;2022-10-31T03:04:10;100714.88;;;14.99;68.31
45888;BME280;31595;51.418;7.572;2022-10-31T03:06:45;100715.28;;;14.89;68.70
45888;BME280;31595;51.418;7.572;2022-10-31T03:09:22;100726.91;;;14.78;69.25
45888;BME280;31595;51.418;7.572;2022-10-31T03:11:58;100735.31;;;14.70;68.33
45888;BME280;31595;51.418;7.572;2022-10-31T03:14:33;100740.63;;;14.63;68.50
45888;BME280;31595;51.418;7.572;2022-10-31T03:17:13;100748.56;;;14.52;68.97
45888;BME280;31595;51.418;7.572;2022-10-31T03:19:45;100746.28;;;14.45;69.62
45888;BME280;31595;51.418;7.572;2022-10-31T03:22:16;100754.19;;;14.43;70.55
45888;BME280;31595;51.418;7.572;2022-10-31T03:24:45;100762.94;;;14.41;70.73
45888;BME280;31595;51.418;7.572;2022-10-31T03:27:21;100758.50;;;14.40;70.58
45888;BME280;31595;51.418;7.572;2022-10-31T03:29:54;100757.03;;;14.34;70.11
45888;BME280;31595;51.418;7.572;2022-10-31T03:32:27;100753.56;;;14.29;69.60
45888;BME280;31595;51.418;7.572;2022-10-31T03:35:02;100760.81;;;14.21;69.60
45888;BME280;31595;51.418;7.572;2022-10-31T03:37:34;100765.63;;;14.12;69.77
45888;BME280;31595;51.418;7.572;2022-10-31T03:40:04;100760.34;;;14.01;69.80
45888;BME280;31595;51.418;7.572;2022-10-31T03:42:39;100755.88;;;14.00;70.21
45888;BME280;31595;51.418;7.572;2022-10-31T03:45:12;100745.69;;;13.96;71.02
45888;BME280;31595;51.418;7.572;2022-10-31T03:47:41;100757.88;;;14.00;71.79
45888;BME280;31595;51.418;7.572;2022-10-31T03:50:14;100761.97;;;14.02;71.27
45888;BME280;31595;51.418;7.572;2022-10-31T03:52:46;100753.44;;;14.08;72.00
45888;BME280;31595;51.418;7.572;2022-10-31T03:55:18;100753.25;;;14.13;71.85
45888;BME280;31595;51.418;7.572;2022-10-31T03:57:51;100758.00;;;14.21;72.18
45888;BME280;31595;51.418;7.572;2022-10-31T04:00:22;100761.16;;;14.28;71.30
45888;BME280;31595;51.418;7.572;2022-10-31T04:02:53;100750.41;;;14.39;71.25
45888;BME280;31595;51.418;7.572;2022-10-31T04:05:27;100750.72;;;14.46;71.00
45888;BME280;31595;51.418;7.572;2022-10-31T04:07:56;100748.22;;;14.53;71.09
45888;BME280;31595;51.418;7.572;2022-10-31T04:10:26;100758.47;;;14.58;71.45
45888;BME280;31595;51.418;7.572;2022-10-31T04:12:59;100753.03;;;14.61;71.38
45888;BME280;31595;51.418;7.572;2022-10-31T04:15:28;100748.34;;;14.66;70.67
45888;BME280;31595;51.418;7.572;2022-10-31T04:17:59;100747.03;;;14.72;71.37
45888;BME280;31595;51.418;7.572;2022-10-31T04:20:33;100737.44;;;14.81;70.40
45888;BME280;31595;51.418;7.572;2022-10-31T04:23:00;100740.38;;;14.85;69.94
45888;BME280;31595;51.418;7.572;2022-10-31T04:25:28;100734.91;;;14.89;70.91
45888;BME280;31595;51.418;7.572;2022-10-31T04:27:55;100739.53;;;14.93;70.33
45888;BME280;31595;51.418;7.572;2022-10-31T04:30:23;100725.50;;;14.93;70.62
45888;BME280;31595;51.418;7.572;2022-10-31T04:32:50;100731.13;;;14.93;70.48
45888;BME280;31595;51.418;7.572;2022-10-31T04:35:17;100733.91;;;14.93;69.34
45888;BME280;31595;51.418;7.572;2022-10-31T04:37:46;100737.38;;;14.90;70.00
45888;BME280;31595;51.418;7.572;2022-10-31T04:40:13;100735.09;;;14.84;69.04
45888;BME280;31595;51.418;7.572;2022-10-31T04:42:40;100727.72;;;14.79;68.63
45888;BME280;31595;51.418;7.572;2022-10-31T04:45:08;100723.28;;;14.69;69.88
45888;BME280;31595;51.418;7.572;2022-10-31T04:47:36;100719.50;;;14.65;69.02
45888;BME280;31595;51.418;7.572;2022-10-31T04:50:04;100720.69;;;14.64;69.96
45888;BME280;31595;51.418;7.572;2022-10-31T04:52:31;100712.59;;;14.63;70.19
45888;BME280;31595;51.418;7.572;2022-10-31T04:55:00;100711.63;;;14.58;69.58
45888;BME280;31595;51.418;7.572;2022-10-31T04:57:27;100715.25;;;14.50;69.32
45888;BME280;31595;51.418;7.572;2022-10-31T04:59:54;100718.09;;;14.41;70.65
45888;BME280;31595;51.418;7.572;2022-10-31T05:02:21;100720.72;;;14.38;70.39
45888;BME280;31595;51.418;7.572;2022-10-31T05:04:49;100717.09;;;14.37;70.69
45888;BME280;31595;51.418;7.572;2022-10-31T05:07:16;100719.44;;;14.27;71.38
45888;BME280;31595;51.418;7.572;2022-10-31T05:09:43;100717.47;;;14.27;71.39
45888;BME280;31595;51.418;7.572;2022-10-31T05:12:12;100704.13;;;14.24;71.15
45888;BME280;31595;51.418;7.572;2022-10-31T05:14:39;100697.72;;;14.15;70.12
45888;BME280;31595;51.418;7.572;2022-10-31T05:17:06;100700.53;;;14.06;70.90
45888;BME280;31595;51.418;7.572;2022-10-31T05:19:34;100709.13;;;14.01;70.81
45888;BME280;31595;51.418;7.572;2022-10-31T05:22:01;100715.38;;;13.98;70.80
45888;BME280;31595;51.418;7.572;2022-10-31T05:24:28;100720.00;;;13.94;71.70
45888;BME280;31595;51.418;7.572;2022-10-31T05:26:55;100719.00;;;13.90;71.72
45888;BME280;31595;51.418;7.572;2022-10-31T05:29:24;100711.28;;;13.87;70.90
45888;BME280;31595;51.418;7.572;2022-10-31T05:31:51;100711.44;;;13.81;70.87
45888;BME280;31595;51.418;7.572;2022-10-31T05:34:18;100710.28;;;13.83;72.07
45888;BME280;31595;51.418;7.572;2022-10-31T05:36:45;100704.88;;;13.77;71.23
45888;BME280;31595;51.418;7.572;2022-10-31T05:39:13;100699.41;;;13.72;71.10
45888;BME280;31595;51.418;7.572;2022-10-31T05:41:40;100695.63;;;13.68;71.69
45888;BME280;31595;51.418;7.572;2022-10-31T05:44:08;100696.63;;;13.72;71.20
45888;BME280;31595;51.418;7.572;2022-10-31T05:46:36;100704.84;;;13.69;71.60
45888;BME280;31595;51.418;7.572;2022-10-31T05:49:04;100688.41;;;13.67;72.32
45888;BME280;31595;51.418;7.572;2022-10-31T05:51:31;100695.81;;;13.63;71.60
45888;BME280;31595;51.418;7.572;2022-10-31T05:53:58;100694.16;;;13.62;71.87
45888;BME280;31595;51.418;7.572;2022-10-31T05:56:25;100692.66;;;13.65;71.81
45888;BME280;31595;51.418;7.572;2022-10-31T05:58:53;100694.31;;;13.66;71.79
45888;BME280;31595;51.418;7.572;2022-10-31T06:01:20;100691.69;;;13.69;71.01
45888;BME280;31595;51.418;7.572;2022-10-31T06:03:48;100691.53;;;13.66;71.84
45888;BME280;31595;51.418;7.572;2022-10-31T06:06:16;100691.03;;;13.64;71.24
45888;BME280;31595;51.418;7.572;2022-10-31T06:08:43;100688.72;;;13.57;71.41
45888;BME280;31595;51.418;7.572;2022-10-31T06:11:10;100695.81;;;13.54;70.94
45888;BME280;31595;51.418;7.572;2022-10-31T06:13:38;100693.16;;;13.49;70.89
45888;BME280;31595;51.418;7.572;2022-10-31T06:16:05;100689.88;;;13.47;71.24
45888;BME280;31595;51.418;7.572;2022-10-31T06:18:32;100694.13;;;13.27;71.77
45888;BME280;31595;51.418;7.572;2022-10-31T06:21:01;100696.28;;;13.30;72.30
45888;BME280;31595;51.418;7.572;2022-10-31T06:23:28;100698.38;;;13.25;71.68
45888;BME280;31595;51.418;7.572;2022-10-31T06:25:55;100695.88;;;13.06;72.48
45888;BME280;31595;51.418;7.572;2022-10-31T06:28:23;100691.28;;;13.10;72.72
45888;BME280;31595;51.418;7.572;2022-10-31T06:30:50;100703.16;;;13.24;72.32
45888;BME280;31595;51.418;7.572;2022-10-31T06:33:17;100693.16;;;13.32;71.91
45888;BME280;31595;51.418;7.572;2022-10-31T06:35:45;100691.84;;;13.38;71.41
45888;BME280;31595;51.418;7.572;2022-10-31T06:38:14;100685.59;;;13.41;71.68
45888;BME280;31595;51.418;7.572;2022-10-31T06:40:42;100685.94;;;13.48;71.89
45888;BME280;31595;51.418;7.572;2022-10-31T06:43:09;100686.56;;;13.54;71.46
45888;BME280;31595;51.418;7.572;2022-10-31T06:45:37;100686.94;;;13.61;71.03
45888;BME280;31595;51.418;7.572;2022-10-31T06:48:05;100699.91;;;13.74;70.46
45888;BME280;31595;51.418;7.572;2022-10-31T06:50:32;100701.88;;;13.83;70.80
45888;BME280;31595;51.418;7.572;2022-10-31T06:52:59;100695.63;;;13.94;69.67
45888;BME280;31595;51.418;7.572;2022-10-31T06:55:28;100705.00;;;14.07;69.75
45888;BME280;31595;51.418;7.572;2022-10-31T06:57:57;100698.19;;;14.17;69.77
45888;BME280;31595;51.418;7.572;2022-10-31T07:00:26;100695.84;;;14.28;69.01
45888;BME280;31595;51.418;7.572;2022-10-31T07:02:54;100700.47;;;14.41;68.33
45888;BME280;31595;51.418;7.572;2022-10-31T07:05:22;100702.22;;;14.54;68.29
45888;BME280;31595;51.418;7.572;2022-10-31T07:07:52;100709.47;;;14.64;67.87
45888;BME280;31595;51.418;7.572;2022-10-31T07:10:19;100710.56;;;14.72;67.53
45888;BME280;31595;51.418;7.572;2022-10-31T07:12:48;100701.13;;;14.85;67.37
45888;BME280;31595;51.418;7.572;2022-10-31T07:15:15;100695.94;;;14.96;67.83
45888;BME280;31595;51.418;7.572;2022-10-31T07:17:42;100706.91;;;15.10;66.94
45888;BME280;31595;51.418;7.572;2022-10-31T07:20:10;100701.00;;;15.32;65.83
45888;BME280;31595;51.418;7.572;2022-10-31T07:22:37;100699.78;;;15.42;65.68
45888;BME280;31595;51.418;7.572;2022-10-31T07:25:05;100703.13;;;15.56;65.33
45888;BME280;31595;51.418;7.572;2022-10-31T07:27:35;100705.00;;;15.73;65.02
45888;BME280;31595;51.418;7.572;2022-10-31T07:30:07;100710.78;;;15.89;64.73
45888;BME280;31595;51.418;7.572;2022-10-31T07:32:38;100708.59;;;15.95;64.71
45888;BME280;31595;51.418;7.572;2022-10-31T07:35:07;100715.69;;;16.13;63.61
45888;BME280;31595;51.418;7.572;2022-10-31T07:37:34;100709.03;;;16.18;63.34
45888;BME280;31595;51.418;7.572;2022-10-31T07:40:03;100706.59;;;16.29;62.44
45888;BME280;31595;51.418;7.572;2022-10-31T07:42:34;100701.00;;;16.41;62.44
45888;BME280;31595;51.418;7.572;2022-10-31T07:45:02;100697.28;;;16.49;62.05
45888;BME280;31595;51.418;7.572;2022-10-31T07:47:37;100706.31;;;16.55;61.71
45888;BME280;31595;51.418;7.572;2022-10-31T07:50:05;100703.16;;;16.69;61.50
45888;BME280;31595;51.418;7.572;2022-10-31T07:52:33;100702.13;;;16.86;60.89
45888;BME280;31595;51.418;7.572;2022-10-31T07:55:01;100703.41;;;16.88;60.78
45888;BME280;31595;51.418;7.572;2022-10-31T07:57:28;100691.00;;;17.01;60.22
45888;BME280;31595;51.418;7.572;2022-10-31T07:59:56;100691.09;;;17.17;59.75
45888;BME280;31595;51.418;7.572;2022-10-31T08:02:23;100694.03;;;17.21;59.88
45888;BME280;31595;51.418;7.572;2022-10-31T08:04:52;100690.97;;;17.26;59.83
45888;BME280;31595;51.418;7.572;2022-10-31T08:07:20;100689.81;;;17.15;59.61
45888;BME280;31595;51.418;7.572;2022-10-31T08:09:47;100689.81;;;17.15;59.70
45888;BME280;31595;51.418;7.572;2022-10-31T08:12:15;100688.66;;;17.16;60.09
45888;BME280;31595;51.418;7.572;2022-10-31T08:14:42;100693.22;;;17.20;60.14
45888;BME280;31595;51.418;7.572;2022-10-31T08:17:10;100691.31;;;17.24;60.39
45888;BME280;31595;51.418;7.572;2022-10-31T08:19:37;100678.19;;;17.29;60.06
45888;BME280;31595;51.418;7.572;2022-10-31T08:22:06;100682.47;;;17.38;59.68
45888;BME280;31595;51.418;7.572;2022-10-31T08:24:33;100688.69;;;17.44;59.98
45888;BME280;31595;51.418;7.572;2022-10-31T08:27:00;100687.13;;;17.59;59.80
45888;BME280;31595;51.418;7.572;2022-10-31T08:29:27;100680.38;;;17.76;59.32
45888;BME280;31595;51.418;7.572;2022-10-31T08:31:57;100690.25;;;18.26;57.87
45888;BME280;31595;51.418;7.572;2022-10-31T08:34:24;100688.56;;;18.53;56.69
45888;BME280;31595;51.418;7.572;2022-10-31T08:36:51;100675.38;;;18.89;56.32
45888;BME280;31595;51.418;7.572;2022-10-31T08:39:20;100675.50;;;19.28;55.89
45888;BME280;31595;51.418;7.572;2022-10-31T08:41:47;100681.91;;;19.44;54.85
45888;BME280;31595;51.418;7.572;2022-10-31T08:44:14;100678.03;;;19.53;53.94
45888;BME280;31595;51.418;7.572;2022-10-31T08:46:42;100679.56;;;19.85;53.17
45888;BME280;31595;51.418;7.572;2022-10-31T08:49:09;100677.66;;;20.13;53.13
45888;BME280;31595;51.418;7.572;2022-10-31T08:51:37;100669.41;;;20.46;52.06
45888;BME280;31595;51.418;7.572;2022-10-31T08:54:04;100667.53;;;20.77;51.42
45888;BME280;31595;51.418;7.572;2022-10-31T08:56:33;100664.31;;;21.05;50.91
45888;BME280;31595;51.418;7.572;2022-10-31T08:59:00;100670.59;;;21.45;49.85
45888;BME280;31595;51.418;7.572;2022-10-31T09:01:28;100671.09;;;21.84;48.54
45888;BME280;31595;51.418;7.572;2022-10-31T09:03:55;100670.22;;;22.14;47.81
45888;BME280;31595;51.418;7.572;2022-10-31T09:06:22;100661.19;;;22.39;47.65
45888;BME280;31595;51.418;7.572;2022-10-31T09:08:49;100668.09;;;22.41;46.77
45888;BME280;31595;51.418;7.572;2022-10-31T09:11:17;100670.97;;;22.45;47.04
45888;BME280;31595;51.418;7.572;2022-10-31T09:13:45;100666.16;;;22.49;46.80
45888;BME280;31595;51.418;7.572;2022-10-31T09:16:12;100670.97;;;22.48;46.72
45888;BME280;31595;51.418;7.572;2022-10-31T09:18:40;100657.97;;;22.44;46.67
45888;BME280;31595;51.418;7.572;2022-10-31T09:21:07;100662.16;;;22.61;46.70
45888;BME280;31595;51.418;7.572;2022-10-31T09:23:34;100656.78;;;22.93;45.74
45888;BME280;31595;51.418;7.572;2022-10-31T09:26:02;100662.22;;;23.20;45.40
45888;BME280;31595;51.418;7.572;2022-10-31T09:28:29;100663.19;;;23.45;44.86
45888;BME280;31595;51.418;7.572;2022-10-31T09:30:58;100650.00;;;23.89;43.71
45888;BME280;31595;51.418;7.572;2022-10-31T09:33:26;100654.22;;;24.49;43.02
45888;BME280;31595;51.418;7.572;2022-10-31T09:35:53;100647.25;;;25.29;41.13
45888;BME280;31595;51.418;7.572;2022-10-31T09:38:20;100656.03;;;25.81;40.81
45888;BME280;31595;51.418;7.572;2022-10-31T09:40:52;100648.66;;;25.91;40.27
45888;BME280;31595;51.418;7.572;2022-10-31T09:43:28;100645.38;;;25.96;40.34
45888;BME280;31595;51.418;7.572;2022-10-31T09:46:06;100633.47;;;26.08;40.10
45888;BME280;31595;51.418;7.572;2022-10-31T09:48:43;100631.09;;;25.96;39.34
45888;BME280;31595;51.418;7.572;2022-10-31T09:51:15;100624.72;;;25.63;40.38
45888;BME280;31595;51.418;7.572;2022-10-31T09:53:46;100626.69;;;25.77;39.96
45888;BME280;31595;51.418;7.572;2022-10-31T09:56:18;100622.47;;;26.03;39.77
45888;BME280;31595;51.418;7.572;2022-10-31T09:58:49;100626.38;;;26.31;39.49
45888;BME280;31595;51.418;7.572;2022-10-31T10:01:30;100616.81;;;26.52;39.35
45888;BME280;31595;51.418;7.572;2022-10-31T10:04:02;100612.66;;;26.67;39.33
45888;BME280;31595;51.418;7.572;2022-10-31T10:06:34;100614.75;;;26.56;39.50
45888;BME280;31595;51.418;7.572;2022-10-31T10:09:03;100610.41;;;26.41;39.85
45888;BME280;31595;51.418;7.572;2022-10-31T10:11:44;100611.75;;;26.25;39.63
45888;BME280;31595;51.418;7.572;2022-10-31T10:14:35;100611.13;;;26.00;40.23
45888;BME280;31595;51.418;7.572;2022-10-31T10:17:14;100609.09;;;25.93;40.67
45888;BME280;31595;51.418;7.572;2022-10-31T10:19:53;100595.75;;;25.68;41.01
45888;BME280;31595;51.418;7.572;2022-10-31T10:22:29;100605.63;;;25.46;41.84
45888;BME280;31595;51.418;7.572;2022-10-31T10:27:47;100607.81;;;24.91;42.64
45888;BME280;31595;51.418;7.572;2022-10-31T10:30:28;100608.63;;;24.70;43.89
45888;BME280;31595;51.418;7.572;2022-10-31T10:33:01;100592.38;;;24.60;44.29
45888;BME280;31595;51.418;7.572;2022-10-31T10:35:32;100593.16;;;24.25;44.60
45888;BME280;31595;51.418;7.572;2022-10-31T10:38:03;100597.63;;;24.37;45.62
45888;BME280;31595;51.418;7.572;2022-10-31T10:40:31;100592.34;;;24.39;45.08
45888;BME280;31595;51.418;7.572;2022-10-31T10:43:10;100587.88;;;24.27;45.42
45888;BME280;31595;51.418;7.572;2022-10-31T10:46:16;100585.84;;;24.38;44.35
45888;BME280;31595;51.418;7.572;2022-10-31T10:49:10;100584.94;;;25.13;43.92
45888;BME280;31595;51.418;7.572;2022-10-31T10:51:44;100573.34;;;25.67;42.63
45888;BME280;31595;51.418;7.572;2022-10-31T10:54:36;100565.56;;;26.34;41.81
45888;BME280;31595;51.418;7.572;2022-10-31T10:57:14;100553.72;;;27.19;40.41
45888;BME280;31595;51.418;7.572;2022-10-31T10:59:45;100548.97;;;28.24;38.51
45888;BME280;31595;51.418;7.572;2022-10-31T11:02:17;100542.38;;;29.38;35.79
45888;BME280;31595;51.418;7.572;2022-10-31T11:04:49;100539.59;;;30.57;34.63
45888;BME280;31595;51.418;7.572;2022-10-31T11:07:17;100532.72;;;31.42;33.49
45888;BME280;31595;51.418;7.572;2022-10-31T11:09:44;100525.38;;;32.30;31.36
45888;BME280;31595;51.418;7.572;2022-10-31T11:12:18;100523.16;;;33.17;30.26
45888;BME280;31595;51.418;7.572;2022-10-31T11:14:48;100518.41;;;33.54;29.21
45888;BME280;31595;51.418;7.572;2022-10-31T11:17:22;100509.88;;;33.82;29.44
45888;BME280;31595;51.418;7.572;2022-10-31T11:20:05;100499.47;;;34.34;28.60
45888;BME280;31595;51.418;7.572;2022-10-31T11:22:33;100492.28;;;34.76;28.04
45888;BME280;31595;51.418;7.572;2022-10-31T11:25:20;100498.81;;;34.40;27.95
45888;BME280;31595;51.418;7.572;2022-10-31T11:27:58;100488.72;;;34.53;28.08
45888;BME280;31595;51.418;7.572;2022-10-31T11:30:26;100489.88;;;34.74;27.78
45888;BME280;31595;51.418;7.572;2022-10-31T11:32:53;100485.19;;;34.95;28.04
45888;BME280;31595;51.418;7.572;2022-10-31T11:35:24;100490.13;;;35.32;26.79
45888;BME280;31595;51.418;7.572;2022-10-31T11:37:53;100468.31;;;35.03;26.49
45888;BME280;31595;51.418;7.572;2022-10-31T11:40:27;100464.50;;;34.69;26.99
45888;BME280;31595;51.418;7.572;2022-10-31T11:42:57;100460.75;;;34.32;27.56
45888;BME280;31595;51.418;7.572;2022-10-31T11:45:32;100470.72;;;33.50;28.51
45888;BME280;31595;51.418;7.572;2022-10-31T11:48:01;100463.06;;;32.46;30.19
45888;BME280;31595;51.418;7.572;2022-10-31T11:50:34;100456.47;;;31.98;31.08
45888;BME280;31595;51.418;7.572;2022-10-31T11:53:12;100449.31;;;31.38;32.23
45888;BME280;31595;51.418;7.572;2022-10-31T11:55:41;100447.25;;;30.84;33.42
45888;BME280;31595;51.418;7.572;2022-10-31T11:58:23;100443.03;;;30.43;34.10
45888;BME280;31595;51.418;7.572;2022-10-31T12:00:55;100441.31;;;29.83;34.55
45888;BME280;31595;51.418;7.572;2022-10-31T12:03:54;100439.97;;;29.71;35.21
45888;BME280;31595;51.418;7.572;2022-10-31T12:06:29;100426.19;;;29.63;35.69
45888;BME280;31595;51.418;7.572;2022-10-31T12:08:57;100430.53;;;29.71;35.30
45888;BME280;31595;51.418;7.572;2022-10-31T12:11:37;100432.03;;;30.25;34.71
45888;BME280;31595;51.418;7.572;2022-10-31T12:14:19;100419.47;;;30.02;35.09
45888;BME280;31595;51.418;7.572;2022-10-31T12:16:57;100411.63;;;30.35;35.26
45888;BME280;31595;51.418;7.572;2022-10-31T12:19:35;100409.56;;;30.65;34.34
45888;BME280;31595;51.418;7.572;2022-10-31T12:22:15;100411.69;;;30.48;34.23
45888;BME280;31595;51.418;7.572;2022-10-31T12:25:02;100417.22;;;29.61;34.02
45888;BME280;31595;51.418;7.572;2022-10-31T12:27:47;100414.25;;;29.48;35.40
45888;BME280;31595;51.418;7.572;2022-10-31T12:30:20;100405.66;;;29.11;36.14
45888;BME280;31595;51.418;7.572;2022-10-31T12:33:11;100390.47;;;29.47;35.32
45888;BME280;31595;51.418;7.572;2022-10-31T12:35:45;100381.16;;;29.60;35.12
45888;BME280;31595;51.418;7.572;2022-10-31T12:38:32;100383.22;;;29.59;35.87
45888;BME280;31595;51.418;7.572;2022-10-31T12:41:15;100381.81;;;29.67;34.60
45888;BME280;31595;51.418;7.572;2022-10-31T12:43:46;100376.31;;;29.89;36.02
45888;BME280;31595;51.418;7.572;2022-10-31T12:46:24;100373.97;;;29.51;34.31
45888;BME280;31595;51.418;7.572;2022-10-31T12:49:16;100366.09;;;29.55;34.84
45888;BME280;31595;51.418;7.572;2022-10-31T12:51:56;100358.34;;;28.63;34.78
45888;BME280;31595;51.418;7.572;2022-10-31T12:54:43;100370.00;;;28.32;35.43
45888;BME280;31595;51.418;7.572;2022-10-31T12:57:22;100360.88;;;27.98;35.65
45888;BME280;31595;51.418;7.572;2022-10-31T12:59:53;100353.00;;;28.02;35.22
45888;BME280;31595;51.418;7.572;2022-10-31T13:02:28;100339.75;;;27.88;35.20
45888;BME280;31595;51.418;7.572;2022-10-31T13:05:01;100346.19;;;28.16;35.38
45888;BME280;31595;51.418;7.572;2022-10-31T13:07:34;100338.16;;;27.87;35.47
45888;BME280;31595;51.418;7.572;2022-10-31T13:10:08;100336.88;;;27.64;36.01
45888;BME280;31595;51.418;7.572;2022-10-31T13:12:42;100332.28;;;27.70;36.10
45888;BME280;31595;51.418;7.572;2022-10-31T13:15:17;100318.22;;;27.56;35.73
45888;BME280;31595;51.418;7.572;2022-10-31T13:17:47;100319.91;;;27.53;36.14
45888;BME280;31595;51.418;7.572;2022-10-31T13:20:21;100320.75;;;27.27;36.62
45888;BME280;31595;51.418;7.572;2022-10-31T13:22:56;100313.34;;;27.02;36.81
45888;BME280;31595;51.418;7.572;2022-10-31T13:25:32;100306.47;;;26.96;37.09
45888;BME280;31595;51.418;7.572;2022-10-31T13:28:08;100307.47;;;26.55;37.64
45888;BME280;31595;51.418;7.572;2022-10-31T13:30:41;100294.09;;;26.48;38.53
45888;BME280;31595;51.418;7.572;2022-10-31T13:33:14;100294.41;;;26.54;38.37
45888;BME280;31595;51.418;7.572;2022-10-31T13:35:50;100289.66;;;26.44;38.17
45888;BME280;31595;51.418;7.572;2022-10-31T13:38:32;100292.00;;;26.18;39.11
45888;BME280;31595;51.418;7.572;2022-10-31T13:41:09;100293.25;;;25.79;39.50
45888;BME280;31595;51.418;7.572;2022-10-31T13:43:46;100283.66;;;25.59;40.26
45888;BME280;31595;51.418;7.572;2022-10-31T13:46:23;100285.66;;;25.62;39.81
45888;BME280;31595;51.418;7.572;2022-10-31T13:48:51;100276.78;;;25.52;39.40